createdAt,value
2023-03-13T00:01:02.496Z,2.53
2023-03-13T00:03:30.671Z,3.10
2023-03-13T00:06:00.338Z,3.00
2023-03-13T00:08:30.812Z,2.93
2023-03-13T00:10:59.422Z,3.13
2023-03-13T00:13:27.469Z,3.87
2023-03-13T00:16:01.926Z,2.90
2023-03-13T00:18:29.904Z,2.93
2023-03-13T00:21:03.340Z,2.73
2023-03-13T00:23:31.925Z,3.10
2023-03-13T00:26:00.887Z,2.70
2023-03-13T00:28:32.579Z,2.93
2023-03-13T00:31:05.557Z,3.23
2023-03-13T00:33:34.341Z,3.00
2023-03-13T00:36:05.496Z,3.33
2023-03-13T00:38:33.701Z,2.90
2023-03-13T00:41:02.994Z,3.00
2023-03-13T00:43:31.082Z,2.40
2023-03-13T00:45:59.456Z,2.67
2023-03-13T00:48:27.966Z,2.60
2023-03-13T00:50:56.208Z,3.00
2023-03-13T00:53:25.636Z,3.20
2023-03-13T00:55:55.631Z,2.87
2023-03-13T00:58:24.229Z,2.60
2023-03-13T01:00:52.446Z,2.87
2023-03-13T01:03:20.737Z,3.13
2023-03-13T01:05:57.345Z,3.40
2023-03-13T01:08:26.721Z,3.00
2023-03-13T01:10:59.719Z,3.03
2023-03-13T01:13:28.171Z,3.20
2023-03-13T01:15:56.173Z,3.80
2023-03-13T01:18:24.244Z,3.47
2023-03-13T01:20:52.274Z,3.40
2023-03-13T01:23:20.348Z,3.97
2023-03-13T01:25:49.597Z,3.07
2023-03-13T01:28:17.516Z,3.17
2023-03-13T01:30:45.452Z,4.10
2023-03-13T01:33:13.406Z,4.60
2023-03-13T01:35:41.647Z,4.40
2023-03-13T01:38:10.089Z,3.70
2023-03-13T01:40:41.885Z,3.90
2023-03-13T01:43:27.512Z,3.83
2023-03-13T01:46:01.599Z,4.23
2023-03-13T01:48:38.762Z,4.30
2023-03-13T01:51:10.247Z,4.10
2023-03-13T01:53:41.934Z,4.27
2023-03-13T01:56:14.627Z,4.00
2023-03-13T01:58:44.193Z,4.40
2023-03-13T02:01:13.945Z,3.93
2023-03-13T02:03:43.285Z,4.77
2023-03-13T02:06:11.961Z,3.73
2023-03-13T02:08:44.230Z,4.20
2023-03-13T02:11:22.889Z,4.00
2023-03-13T02:13:52.896Z,3.83
2023-03-13T02:16:21.881Z,4.60
2023-03-13T02:18:50.291Z,3.93
2023-03-13T02:21:26.261Z,3.90
2023-03-13T02:23:59.106Z,3.83
2023-03-13T02:26:28.472Z,4.47
2023-03-13T02:28:56.403Z,3.93
2023-03-13T02:31:24.513Z,4.30
2023-03-13T02:33:52.472Z,4.47
2023-03-13T02:36:21.038Z,3.93
2023-03-13T02:38:56.205Z,4.20
2023-03-13T02:41:25.566Z,3.73
2023-03-13T02:43:54.925Z,4.03
2023-03-13T02:46:23.085Z,4.23
2023-03-13T02:48:52.963Z,3.50
2023-03-13T02:51:26.444Z,3.67
2023-03-13T02:53:57.213Z,3.80
2023-03-13T02:56:27.989Z,4.00
2023-03-13T02:58:57.396Z,3.63
2023-03-13T03:01:25.326Z,4.00
2023-03-13T03:03:53.349Z,4.20
2023-03-13T03:06:21.327Z,3.60
2023-03-13T03:08:49.214Z,4.50
2023-03-13T03:11:17.220Z,3.70
2023-03-13T03:13:45.189Z,4.07
2023-03-13T03:16:18.546Z,4.53
2023-03-13T03:18:46.649Z,4.13
2023-03-13T03:21:14.860Z,5.27
2023-03-13T03:23:42.810Z,4.53
2023-03-13T03:26:10.968Z,3.87
2023-03-13T03:28:38.910Z,4.37
2023-03-13T03:31:07.312Z,4.07
2023-03-13T03:33:36.607Z,4.77
2023-03-13T03:36:07.430Z,5.07
2023-03-13T03:38:35.763Z,4.67
2023-03-13T03:41:03.741Z,4.87
2023-03-13T03:43:32.006Z,4.87
2023-03-13T03:46:00.175Z,4.53
2023-03-13T03:48:28.540Z,4.80
2023-03-13T03:50:57.946Z,5.37
2023-03-13T03:53:26.430Z,4.60
2023-03-13T03:55:54.320Z,5.43
2023-03-13T03:58:22.486Z,5.40
2023-03-13T04:00:50.655Z,5.10
2023-03-13T04:03:18.957Z,5.07
2023-03-13T04:05:46.907Z,5.50
2023-03-13T04:08:17.439Z,4.67
2023-03-13T04:10:45.318Z,4.83
2023-03-13T04:13:13.228Z,4.90
2023-03-13T04:15:41.719Z,4.43
2023-03-13T04:18:09.642Z,5.63
2023-03-13T04:20:38.008Z,5.10
2023-03-13T04:23:05.895Z,5.53
2023-03-13T04:25:35.165Z,4.50
2023-03-13T04:28:03.268Z,6.77
2023-03-13T04:30:31.291Z,5.73
2023-03-13T04:32:59.286Z,4.73
2023-03-13T04:35:27.368Z,4.83
2023-03-13T04:37:55.312Z,4.30
2023-03-13T04:40:23.263Z,4.87
2023-03-13T04:42:52.595Z,4.50
2023-03-13T04:45:20.536Z,4.60
2023-03-13T04:47:48.794Z,5.50
2023-03-13T04:50:17.422Z,5.07
2023-03-13T04:52:45.332Z,5.07
2023-03-13T04:55:13.346Z,5.10
2023-03-13T04:57:41.252Z,6.10
2023-03-13T05:00:11.964Z,4.83
2023-03-13T05:02:39.849Z,4.47
2023-03-13T05:05:08.178Z,5.80
2023-03-13T05:07:36.121Z,5.77
2023-03-13T05:10:04.291Z,4.70
2023-03-13T05:12:32.259Z,4.80
2023-03-13T05:15:00.425Z,4.70
2023-03-13T05:17:29.715Z,5.10
2023-03-13T05:19:57.691Z,5.03
2023-03-13T05:22:25.724Z,5.00
2023-03-13T05:24:54.128Z,4.90
2023-03-13T05:27:22.092Z,4.60
2023-03-13T05:29:50.028Z,4.43
2023-03-13T05:32:18.014Z,4.83
2023-03-13T05:34:47.407Z,5.53
2023-03-13T05:37:15.397Z,5.73
2023-03-13T05:39:43.380Z,6.50
2023-03-13T05:42:11.372Z,6.00
2023-03-13T05:44:39.319Z,6.60
2023-03-13T05:47:07.532Z,7.30
2023-03-13T05:49:35.448Z,6.37
2023-03-13T05:52:05.120Z,5.43
2023-03-13T05:54:33.015Z,6.30
2023-03-13T05:57:00.908Z,6.37
2023-03-13T05:59:28.825Z,7.10
2023-03-13T06:01:56.833Z,7.17
2023-03-13T06:04:25.493Z,6.43
2023-03-13T06:06:53.469Z,6.77
2023-03-13T06:09:22.932Z,6.77
2023-03-13T06:11:50.813Z,7.00
2023-03-13T06:14:19.039Z,6.60
2023-03-13T06:16:47.132Z,7.07
2023-03-13T06:19:15.346Z,6.10
2023-03-13T06:21:43.276Z,6.60
2023-03-13T06:24:11.335Z,6.93
2023-03-13T06:26:40.766Z,9.77
2023-03-13T06:29:08.816Z,17.63
2023-03-13T06:31:36.830Z,9.40
2023-03-13T06:34:04.892Z,6.40
2023-03-13T06:36:33.178Z,6.20
2023-03-13T06:39:01.175Z,5.90
2023-03-13T06:41:29.100Z,4.97
2023-03-13T06:43:58.517Z,4.90
2023-03-13T06:46:27.196Z,4.50
2023-03-13T06:48:55.196Z,5.27
2023-03-13T06:51:23.517Z,7.57
2023-03-13T06:53:52.317Z,5.50
2023-03-13T06:56:21.707Z,4.37
2023-03-13T06:58:50.617Z,5.70
2023-03-13T07:01:20.068Z,5.00
2023-03-13T07:03:49.189Z,6.37
2023-03-13T07:06:18.368Z,4.83
2023-03-13T07:08:46.379Z,4.47
2023-03-13T07:11:15.469Z,4.63
2023-03-13T07:13:43.586Z,5.50
2023-03-13T07:16:13.575Z,4.43
2023-03-13T07:18:44.525Z,4.00
2023-03-13T07:21:14.253Z,4.07
2023-03-13T07:23:42.609Z,4.27
2023-03-13T07:26:13.769Z,3.97
2023-03-13T07:28:42.178Z,4.33
2023-03-13T07:31:14.408Z,5.80
2023-03-13T07:33:44.857Z,4.07
2023-03-13T07:36:16.901Z,5.30
2023-03-13T07:38:48.341Z,5.23
2023-03-13T07:41:16.767Z,3.53
2023-03-13T07:43:44.677Z,3.23
2023-03-13T07:46:14.311Z,3.33
2023-03-13T07:48:44.666Z,2.80
2023-03-13T07:51:14.938Z,3.40
2023-03-13T07:53:43.055Z,2.60
2023-03-13T07:56:13.284Z,3.10
2023-03-13T07:58:42.637Z,2.67
2023-03-13T08:01:12.476Z,2.90
2023-03-13T08:03:40.932Z,7.63
2023-03-13T08:06:12.415Z,3.27
2023-03-13T08:08:41.049Z,2.77
2023-03-13T08:11:11.209Z,2.50
2023-03-13T08:13:39.611Z,3.40
2023-03-13T08:16:10.097Z,4.70
2023-03-13T08:18:39.734Z,3.00
2023-03-13T08:21:11.462Z,2.40
2023-03-13T08:23:40.080Z,1.73
2023-03-13T08:26:10.282Z,2.67
2023-03-13T08:28:38.844Z,3.40
2023-03-13T08:31:11.143Z,4.20
2023-03-13T08:33:39.500Z,6.40
2023-03-13T08:36:16.003Z,3.77
2023-03-13T08:38:46.956Z,3.90
2023-03-13T08:41:16.871Z,5.53
2023-03-13T08:43:45.288Z,3.43
2023-03-13T08:46:14.002Z,4.40
2023-03-13T08:48:43.108Z,5.53
2023-03-13T08:51:14.673Z,2.80
2023-03-13T08:53:45.005Z,2.97
2023-03-13T08:56:14.446Z,3.30
2023-03-13T08:58:43.159Z,3.37
2023-03-13T09:01:13.009Z,4.40
2023-03-13T09:03:41.970Z,2.93
2023-03-13T09:06:11.227Z,3.43
2023-03-13T09:08:41.738Z,2.73
2023-03-13T09:11:11.523Z,2.87
2023-03-13T09:13:42.001Z,3.17
2023-03-13T09:16:12.359Z,2.30
2023-03-13T09:18:40.874Z,2.53
2023-03-13T09:21:10.630Z,2.20
2023-03-13T09:23:40.240Z,10.30
2023-03-13T09:26:08.183Z,3.77
2023-03-13T09:28:36.430Z,2.03
2023-03-13T09:31:11.789Z,31.73
2023-03-13T09:33:40.101Z,2.97
2023-03-13T09:36:09.404Z,2.37
2023-03-13T09:38:37.990Z,3.03
2023-03-13T09:41:21.670Z,4.87
2023-03-13T09:43:54.634Z,2.87
2023-03-13T09:46:27.398Z,2.50
2023-03-13T09:49:00.831Z,2.10
2023-03-13T09:51:31.869Z,2.47
2023-03-13T09:54:05.085Z,2.20
2023-03-13T09:56:41.582Z,2.20
2023-03-13T09:59:17.798Z,2.00
2023-03-13T10:01:47.472Z,2.20
2023-03-13T10:04:29.266Z,2.60
2023-03-13T10:06:57.788Z,2.33
2023-03-13T10:09:30.600Z,2.93
2023-03-13T10:12:08.041Z,1.93
2023-03-13T10:14:45.012Z,2.20
2023-03-13T10:17:27.251Z,2.10
2023-03-13T10:20:00.759Z,2.30
2023-03-13T10:22:32.039Z,1.80
2023-03-13T10:25:03.937Z,2.27
2023-03-13T10:27:33.236Z,1.90
2023-03-13T10:30:01.272Z,2.63
2023-03-13T10:32:29.254Z,2.23
2023-03-13T10:34:58.908Z,1.57
2023-03-13T10:37:28.658Z,1.77
2023-03-13T10:40:12.100Z,1.63
2023-03-13T10:42:45.226Z,2.00
2023-03-13T10:45:18.470Z,1.67
2023-03-13T10:47:46.425Z,2.43
2023-03-13T10:50:20.283Z,1.30
2023-03-13T10:52:49.895Z,1.33
2023-03-13T10:55:20.624Z,1.17
2023-03-13T10:57:59.826Z,1.10
2023-03-13T11:00:35.497Z,1.60
2023-03-13T11:03:06.536Z,1.30
2023-03-13T11:05:40.041Z,1.13
2023-03-13T11:08:22.078Z,1.47
2023-03-13T11:11:01.593Z,1.03
2023-03-13T11:13:41.837Z,1.20
2023-03-13T11:16:19.744Z,1.40
2023-03-13T11:19:11.207Z,1.20
2023-03-13T11:21:44.998Z,1.03
2023-03-13T11:24:17.658Z,0.90
2023-03-13T11:27:04.192Z,1.20
2023-03-13T11:29:42.421Z,1.30
2023-03-13T11:32:21.057Z,1.20
2023-03-13T11:34:52.823Z,1.40
2023-03-13T11:37:23.665Z,1.07
2023-03-13T11:40:11.136Z,1.40
2023-03-13T11:43:01.166Z,1.43
2023-03-13T11:45:56.797Z,1.40
2023-03-13T11:48:38.844Z,1.60
2023-03-13T11:51:14.243Z,1.20
2023-03-13T11:54:10.482Z,1.90
2023-03-13T11:56:44.124Z,1.53
2023-03-13T11:59:32.471Z,1.40
2023-03-13T12:02:07.685Z,1.63
2023-03-13T12:04:42.265Z,2.07
2023-03-13T12:07:21.394Z,2.07
2023-03-13T12:09:55.413Z,1.20
2023-03-13T12:12:33.708Z,1.63
2023-03-13T12:15:08.883Z,1.30
2023-03-13T12:17:42.055Z,2.07
2023-03-13T12:20:18.333Z,2.27
2023-03-13T12:22:52.005Z,1.30
2023-03-13T12:25:24.789Z,5.50
2023-03-13T12:27:56.163Z,21.20
2023-03-13T12:30:32.646Z,5.97
2023-03-13T12:33:14.469Z,2.40
2023-03-13T12:35:47.185Z,1.63
2023-03-13T12:38:22.293Z,2.07
2023-03-13T12:41:01.513Z,1.30
2023-03-13T12:43:33.117Z,1.77
2023-03-13T12:46:22.862Z,1.90
2023-03-13T12:49:08.566Z,2.20
2023-03-13T12:51:48.214Z,3.20
2023-03-13T12:54:42.599Z,1.47
2023-03-13T12:57:25.238Z,1.70
2023-03-13T12:59:59.061Z,1.67
2023-03-13T13:02:30.439Z,1.77
2023-03-13T13:05:03.285Z,1.03
2023-03-13T13:07:33.482Z,1.27
2023-03-13T13:10:20.168Z,1.20
2023-03-13T13:13:08.913Z,1.40
2023-03-13T13:15:38.230Z,1.07
2023-03-13T13:18:25.575Z,0.93
2023-03-13T13:21:23.383Z,2.57
2023-03-13T13:23:54.155Z,1.43
2023-03-13T13:26:50.022Z,2.20
2023-03-13T13:29:58.012Z,1.70
2023-03-13T13:32:44.244Z,1.70
2023-03-13T13:35:27.719Z,1.20
2023-03-13T13:38:27.969Z,1.10
2023-03-13T13:41:22.460Z,1.53
2023-03-13T13:44:11.607Z,1.00
2023-03-13T13:46:46.102Z,1.13
2023-03-13T13:49:19.004Z,0.90
2023-03-13T13:52:38.549Z,1.13
2023-03-13T13:55:42.930Z,1.23
2023-03-13T13:58:19.620Z,1.50
2023-03-13T14:00:53.937Z,1.20
2023-03-13T14:03:24.199Z,0.90
2023-03-13T14:05:56.329Z,1.57
2023-03-13T14:08:29.742Z,0.97
2023-03-13T14:11:10.958Z,1.27
2023-03-13T14:13:39.154Z,2.00
2023-03-13T14:16:24.657Z,3.07
2023-03-13T14:18:53.989Z,1.03
2023-03-13T14:21:24.369Z,1.40
2023-03-13T14:23:52.820Z,1.30
2023-03-13T14:26:24.502Z,1.17
2023-03-13T14:28:54.317Z,0.97
2023-03-13T14:31:24.551Z,1.40
2023-03-13T14:33:55.797Z,1.30
2023-03-13T14:36:23.937Z,2.53
2023-03-13T14:38:56.947Z,2.00
2023-03-13T14:41:37.640Z,1.30
2023-03-13T14:44:08.516Z,1.60
2023-03-13T14:46:38.214Z,1.40
2023-03-13T14:49:16.873Z,1.00
2023-03-13T14:51:45.283Z,1.00
2023-03-13T14:54:27.688Z,1.13
2023-03-13T14:57:16.019Z,0.90
2023-03-13T14:59:44.628Z,1.00
2023-03-13T15:02:20.980Z,1.10
2023-03-13T15:04:52.859Z,2.90
2023-03-13T15:07:21.868Z,1.00
2023-03-13T15:09:51.077Z,1.63
2023-03-13T15:12:22.499Z,1.20
2023-03-13T15:14:52.354Z,1.30
2023-03-13T15:17:22.715Z,1.10
2023-03-13T15:19:52.496Z,1.17
2023-03-13T15:22:26.541Z,0.83
2023-03-13T15:25:05.595Z,1.10
2023-03-13T15:27:36.612Z,0.90
2023-03-13T15:30:05.946Z,1.03
2023-03-13T15:32:37.668Z,1.00
2023-03-13T15:35:22.336Z,0.90
2023-03-13T15:37:50.708Z,0.90
2023-03-13T15:40:19.628Z,0.97
2023-03-13T15:42:49.240Z,1.07
2023-03-13T15:45:17.505Z,0.90
2023-03-13T15:47:46.069Z,1.00
2023-03-13T15:50:16.013Z,1.53
2023-03-13T15:52:44.644Z,1.07
2023-03-13T15:55:13.437Z,1.20
2023-03-13T15:57:44.506Z,1.20
2023-03-13T16:00:22.525Z,0.90
2023-03-13T16:02:50.632Z,1.40
2023-03-13T16:05:19.297Z,1.30
2023-03-13T16:07:47.274Z,1.83
2023-03-13T16:10:18.904Z,7.00
2023-03-13T16:12:46.998Z,1.90
2023-03-13T16:15:16.445Z,2.53
2023-03-13T16:17:44.598Z,1.40
2023-03-13T16:20:16.974Z,1.33
2023-03-13T16:22:45.410Z,1.30
2023-03-13T16:25:14.101Z,1.00
2023-03-13T16:27:42.462Z,1.20
2023-03-13T16:30:20.226Z,1.10
2023-03-13T16:32:48.404Z,1.20
2023-03-13T16:35:16.591Z,1.10
2023-03-13T16:37:44.570Z,1.30
2023-03-13T16:40:17.209Z,1.20
2023-03-13T16:42:45.478Z,1.00
2023-03-13T16:45:14.450Z,1.40
2023-03-13T16:47:44.813Z,1.10
2023-03-13T16:50:22.159Z,1.20
2023-03-13T16:52:50.207Z,1.10
2023-03-13T16:55:18.537Z,1.03
2023-03-13T16:57:46.915Z,0.80
2023-03-13T17:00:17.918Z,1.07
2023-03-13T17:02:48.201Z,1.30
2023-03-13T17:05:17.816Z,1.10
2023-03-13T17:07:48.214Z,1.10
2023-03-13T17:10:21.671Z,0.90
2023-03-13T17:12:50.205Z,2.00
2023-03-13T17:15:21.557Z,1.83
2023-03-13T17:17:52.903Z,2.07
2023-03-13T17:20:23.520Z,1.30
2023-03-13T17:22:51.449Z,1.37
2023-03-13T17:25:19.825Z,1.10
2023-03-13T17:27:48.422Z,1.57
2023-03-13T17:30:21.472Z,1.47
2023-03-13T17:32:51.449Z,1.50
2023-03-13T17:35:20.842Z,1.47
2023-03-13T17:37:50.650Z,1.20
2023-03-13T17:40:20.716Z,1.20
2023-03-13T17:42:49.582Z,1.40
2023-03-13T17:45:18.450Z,1.70
2023-03-13T17:47:47.050Z,1.70
2023-03-13T17:50:19.491Z,2.90
2023-03-13T17:52:47.494Z,11.90
2023-03-13T17:55:15.884Z,5.43
2023-03-13T17:57:44.689Z,2.60
2023-03-13T18:00:21.176Z,3.20
2023-03-13T18:02:49.493Z,1.67
2023-03-13T18:05:19.301Z,1.90
2023-03-13T18:07:48.333Z,3.70
2023-03-13T18:10:19.275Z,12.90
2023-03-13T18:12:47.990Z,21.53
2023-03-13T18:15:16.410Z,14.40
2023-03-13T18:17:44.645Z,11.30
2023-03-13T18:20:19.392Z,6.03
2023-03-13T18:22:48.271Z,5.77
2023-03-13T18:25:16.989Z,11.23
2023-03-13T18:27:45.374Z,33.53
2023-03-13T18:30:19.144Z,27.17
2023-03-13T18:32:47.600Z,13.10
2023-03-13T18:35:19.207Z,6.93
2023-03-13T18:37:49.602Z,5.97
2023-03-13T18:40:20.308Z,8.53
2023-03-13T18:42:48.809Z,3.97
2023-03-13T18:45:18.125Z,2.47
2023-03-13T18:47:48.048Z,4.97
2023-03-13T18:50:26.665Z,2.30
2023-03-13T18:52:56.584Z,2.00
2023-03-13T18:55:26.471Z,3.27
2023-03-13T18:57:55.757Z,3.47
2023-03-13T19:00:26.461Z,2.33
2023-03-13T19:02:54.720Z,2.40
2023-03-13T19:05:24.936Z,12.20
2023-03-13T19:07:52.980Z,2.70
2023-03-13T19:10:24.509Z,3.43
2023-03-13T19:12:53.953Z,3.20
2023-03-13T19:15:24.460Z,4.90
2023-03-13T19:17:52.854Z,7.80
2023-03-13T19:20:24.126Z,5.43
2023-03-13T19:22:53.498Z,5.00
2023-03-13T19:25:22.386Z,4.30
2023-03-13T19:27:50.472Z,4.83
2023-03-13T19:30:19.439Z,5.00
2023-03-13T19:32:47.925Z,4.10
2023-03-13T19:35:18.661Z,4.67
2023-03-13T19:37:48.848Z,4.20
2023-03-13T19:40:20.606Z,4.90
2023-03-13T19:42:48.650Z,3.73
2023-03-13T19:45:19.685Z,4.60
2023-03-13T19:47:47.841Z,4.27
2023-03-13T19:50:27.478Z,4.87
2023-03-13T19:52:57.197Z,4.67
2023-03-13T19:55:25.351Z,5.70
2023-03-13T19:57:53.406Z,4.80
2023-03-13T20:00:24.322Z,5.37
2023-03-13T20:02:54.895Z,4.40
2023-03-13T20:05:23.127Z,4.03
2023-03-13T20:07:53.311Z,4.90
2023-03-13T20:10:23.191Z,18.67
2023-03-13T20:12:53.477Z,8.93
2023-03-13T20:15:21.527Z,8.83
2023-03-13T20:17:49.433Z,5.73
2023-03-13T20:20:18.145Z,8.10
2023-03-13T20:22:46.119Z,6.90
2023-03-13T20:25:15.544Z,6.40
2023-03-13T20:27:44.927Z,7.13
2023-03-13T20:30:13.434Z,6.50
2023-03-13T20:32:56.692Z,6.30
2023-03-13T20:35:26.820Z,5.63
2023-03-13T20:37:54.767Z,5.60
2023-03-13T20:40:22.963Z,5.93
2023-03-13T20:42:52.314Z,5.90
2023-03-13T20:45:20.275Z,6.03
2023-03-13T20:47:48.565Z,6.30
2023-03-13T20:50:19.264Z,6.20
2023-03-13T20:52:48.648Z,4.80
2023-03-13T20:55:17.277Z,5.00
2023-03-13T20:57:45.229Z,6.90
2023-03-13T21:00:15.401Z,5.03
2023-03-13T21:02:43.482Z,5.10
2023-03-13T21:05:11.458Z,5.63
2023-03-13T21:07:39.581Z,4.80
2023-03-13T21:10:08.777Z,5.50
2023-03-13T21:12:37.204Z,6.30
2023-03-13T21:15:06.184Z,4.90
2023-03-13T21:17:36.143Z,5.47
2023-03-13T21:20:08.280Z,4.77
2023-03-13T21:22:36.383Z,4.10
2023-03-13T21:25:05.400Z,4.67
2023-03-13T21:27:33.497Z,4.80
2023-03-13T21:30:01.548Z,4.37
2023-03-13T21:32:29.714Z,5.30
2023-03-13T21:34:59.193Z,4.77
2023-03-13T21:37:28.486Z,5.23
2023-03-13T21:39:56.875Z,5.67
2023-03-13T21:42:25.317Z,5.20
2023-03-13T21:44:53.843Z,5.50
2023-03-13T21:47:24.433Z,5.10
2023-03-13T21:49:52.583Z,5.40
2023-03-13T21:52:23.629Z,5.43
2023-03-13T21:54:51.561Z,6.13
2023-03-13T21:57:19.473Z,5.50
2023-03-13T21:59:47.362Z,6.10
2023-03-13T22:02:15.435Z,6.50
2023-03-13T22:04:43.474Z,5.77
2023-03-13T22:07:11.479Z,5.87
2023-03-13T22:09:41.066Z,5.63
2023-03-13T22:12:09.318Z,5.37
2023-03-13T22:14:37.403Z,5.70
2023-03-13T22:17:05.436Z,5.80
2023-03-13T22:19:34.280Z,6.07
2023-03-13T22:22:02.243Z,5.50
2023-03-13T22:24:30.108Z,5.60
2023-03-13T22:26:59.402Z,5.63
2023-03-13T22:29:30.660Z,5.73
2023-03-13T22:31:59.154Z,6.33
2023-03-13T22:34:27.322Z,6.17
2023-03-13T22:36:55.602Z,6.20
2023-03-13T22:39:23.667Z,5.70
2023-03-13T22:41:51.574Z,5.63
2023-03-13T22:44:21.723Z,6.07
2023-03-13T22:46:50.096Z,5.57
2023-03-13T22:49:17.990Z,6.07
2023-03-13T22:51:46.010Z,5.47
2023-03-13T22:54:14.165Z,5.50
2023-03-13T22:56:42.085Z,6.00
2023-03-13T22:59:10.134Z,6.23
2023-03-13T23:01:39.530Z,6.27
2023-03-13T23:04:07.689Z,6.10
2023-03-13T23:06:35.625Z,6.80
2023-03-13T23:09:03.508Z,6.50
2023-03-13T23:11:31.526Z,6.30
2023-03-13T23:13:59.784Z,6.83
2023-03-13T23:16:28.245Z,7.00
2023-03-13T23:18:57.571Z,6.10
2023-03-13T23:21:25.807Z,5.90
2023-03-13T23:23:55.234Z,7.10
2023-03-13T23:26:24.033Z,7.20
2023-03-13T23:28:52.113Z,7.13
2023-03-13T23:31:22.248Z,6.43
2023-03-13T23:33:50.694Z,6.57
2023-03-13T23:36:20.574Z,7.63
2023-03-13T23:38:50.788Z,6.87
2023-03-13T23:41:19.007Z,6.70
2023-03-13T23:43:47.002Z,6.80
2023-03-13T23:46:18.809Z,8.03
2023-03-13T23:48:46.977Z,7.00
2023-03-13T23:51:15.358Z,7.40
2023-03-13T23:53:45.102Z,6.60
2023-03-13T23:56:13.678Z,7.60
2023-03-13T23:58:42.714Z,7.87
